Time;durP1;ratioP1;P1;durP2;ratioP2;P2;SDS_P1;SDS_P2;PMS_P1;PMS_P2;Temp;Humidity;BMP_temperature;BMP_pressure;BME280_temperature;BME280_humidity;BME280_pressure;Samples;Min_cycle;Max_cycle;Signal;HPM_P1;HPM_P2
2022/04/17 00:00:27;;;;;;;1.42;0.60;;;12.50;56.80;;;;;;5006069;28;20030;-74
2022/04/17 00:02:53;;;;;;;2.67;0.63;;;12.40;56.60;;;;;;4992162;28;20038;-74
2022/04/17 00:05:19;;;;;;;1.45;0.60;;;12.20;58.10;;;;;;4993182;28;20136;-74
2022/04/17 00:07:46;;;;;;;1.20;0.45;;;11.90;58.50;;;;;;5011218;28;20443;-74
2022/04/17 00:10:11;;;;;;;2.05;0.75;;;12.10;57.40;;;;;;5011627;28;20178;-74
2022/04/17 00:12:41;;;;;;;1.38;0.47;;;12.20;57.60;;;;;;4992807;28;20050;-74
2022/04/17 00:15:09;;;;;;;2.92;0.68;;;12.20;57.90;;;;;;4992442;28;20469;-74
2022/04/17 00:17:37;;;;;;;3.78;0.50;;;11.90;58.40;;;;;;4993609;28;20037;-74
2022/04/17 00:20:04;;;;;;;2.67;0.40;;;11.60;59.00;;;;;;4992604;28;20037;-74
2022/04/17 00:22:29;;;;;;;1.17;0.57;;;11.50;58.90;;;;;;5010251;28;20034;-74
2022/04/17 00:24:55;;;;;;;1.08;0.50;;;11.90;57.60;;;;;;5011598;28;20129;-74
2022/04/17 00:27:21;;;;;;;1.65;0.57;;;11.90;57.20;;;;;;4994733;28;20105;-74
2022/04/17 00:29:46;;;;;;;2.55;0.57;;;11.90;58.20;;;;;;4995257;28;20037;-74
2022/04/17 00:32:12;;;;;;;0.43;0.20;;;12.00;57.10;;;;;;5010696;28;20052;-74
2022/04/17 00:34:38;;;;;;;1.08;0.32;;;11.80;58.40;;;;;;4997793;28;20045;-74
2022/04/17 00:37:06;;;;;;;1.23;0.52;;;11.30;58.80;;;;;;4999382;28;20045;-74
2022/04/17 00:39:32;;;;;;;3.35;0.70;;;11.40;58.00;;;;;;4995720;28;20029;-74
2022/04/17 00:42:00;;;;;;;0.63;0.35;;;11.30;58.40;;;;;;5007265;28;20034;-74
2022/04/17 00:44:26;;;;;;;0.88;0.40;;;11.00;59.30;;;;;;5013786;28;20036;-74
2022/04/17 00:46:52;;;;;;;1.52;0.65;;;10.90;61.20;;;;;;5002318;28;20030;-74
2022/04/17 00:49:18;;;;;;;1.10;0.50;;;10.80;61.40;;;;;;4995632;28;20440;-74
2022/04/17 00:51:46;;;;;;;0.43;0.30;;;10.80;61.90;;;;;;4996735;28;20080;-74
2022/04/17 00:54:13;;;;;;;0.43;0.40;;;10.50;63.10;;;;;;4995569;28;20034;-74
2022/04/17 00:56:40;;;;;;;1.08;0.43;;;10.60;62.50;;;;;;5014318;28;20449;-74
2022/04/17 00:59:09;;;;;;;2.15;0.70;;;10.70;62.00;;;;;;5014682;28;20034;-74
2022/04/17 01:01:36;;;;;;;1.25;0.60;;;10.70;61.30;;;;;;5008709;28;20045;-74
2022/04/17 01:04:02;;;;;;;1.38;0.40;;;10.80;61.00;;;;;;5015136;28;20026;-75
2022/04/17 01:06:30;;;;;;;1.00;0.70;;;10.30;61.50;;;;;;4997597;28;20524;-74
2022/04/17 01:08:56;;;;;;;1.88;0.50;;;10.50;61.50;;;;;;4995051;28;20030;-75
2022/04/17 01:11:22;;;;;;;2.35;0.60;;;10.60;61.50;;;;;;5010108;28;20025;-74
2022/04/17 01:13:48;;;;;;;1.77;0.70;;;10.60;60.90;;;;;;5015185;28;20373;-74
2022/04/17 01:16:16;;;;;;;2.50;0.47;;;10.70;60.30;;;;;;5001061;28;20053;-73
2022/04/17 01:19:03;;;;;;;1.65;0.70;;;10.70;60.00;;;;;;5013239;28;20095;-74
2022/04/17 01:21:30;;;;;;;2.30;0.60;;;10.60;60.60;;;;;;5011540;28;20029;-74
2022/04/17 01:26:58;;;;;;;1.45;0.60;;;10.40;61.20;;;;;;4997687;28;20095;-73
2022/04/17 01:29:28;;;;;;;1.20;0.50;;;10.10;61.30;;;;;;4994391;28;20120;-74
2022/04/17 01:31:54;;;;;;;1.58;0.77;;;9.80;62.10;;;;;;4998352;28;20030;-74
2022/04/17 01:34:21;;;;;;;1.65;0.50;;;9.50;63.50;;;;;;5014802;28;20022;-75
2022/04/17 01:36:49;;;;;;;1.10;0.47;;;9.80;61.80;;;;;;4998224;28;20042;-74
2022/04/17 01:39:15;;;;;;;0.73;0.40;;;10.00;61.90;;;;;;4994860;28;20030;-74
2022/04/17 01:41:41;;;;;;;1.20;0.70;;;9.80;61.70;;;;;;4998092;28;20050;-74
2022/04/17 01:44:07;;;;;;;1.13;0.43;;;9.90;61.40;;;;;;5007429;28;20540;-74
2022/04/17 01:46:33;;;;;;;1.70;0.57;;;9.70;61.90;;;;;;4994778;28;20084;-75
2022/04/17 01:48:59;;;;;;;4.47;0.80;;;9.90;61.20;;;;;;4996026;28;20030;-73
2022/04/17 01:51:25;;;;;;;1.33;0.55;;;10.10;61.10;;;;;;4996124;28;20031;-74
2022/04/17 01:53:51;;;;;;;2.13;0.35;;;9.90;61.90;;;;;;4994904;28;20034;-74
2022/04/17 01:56:17;;;;;;;1.10;0.50;;;9.90;61.10;;;;;;4993058;28;20034;-74
2022/04/17 01:58:42;;;;;;;2.60;0.75;;;9.70;61.90;;;;;;5000905;28;20443;-73
2022/04/17 02:01:08;;;;;;;0.77;0.50;;;9.60;62.00;;;;;;5012624;28;20056;-74
2022/04/17 02:03:34;;;;;;;4.25;0.60;;;9.50;62.70;;;;;;4994847;28;20448;-74
2022/04/17 02:06:02;;;;;;;1.02;0.50;;;9.70;62.50;;;;;;4994871;28;20097;-74
2022/04/17 02:08:28;;;;;;;0.93;0.50;;;9.40;62.70;;;;;;5000543;28;20034;-74
2022/04/17 02:10:55;;;;;;;3.55;0.60;;;9.60;61.10;;;;;;5014334;28;20108;-74
2022/04/17 02:13:23;;;;;;;1.40;0.70;;;9.40;62.00;;;;;;4995726;28;20030;-73
2022/04/17 02:15:53;;;;;;;1.80;0.70;;;9.00;63.70;;;;;;4994341;28;20122;-74
2022/04/17 02:18:20;;;;;;;0.60;0.45;;;8.70;64.20;;;;;;5011268;28;20488;-73
2022/04/17 02:20:47;;;;;;;1.77;0.90;;;8.50;64.30;;;;;;5004139;28;20540;-74
2022/04/17 02:23:13;;;;;;;2.75;0.60;;;8.70;64.00;;;;;;4994379;28;20145;-74
2022/04/17 02:25:39;;;;;;;1.83;0.68;;;8.70;64.20;;;;;;5001511;28;20423;-74
2022/04/17 02:28:04;;;;;;;1.17;0.50;;;9.00;62.30;;;;;;5013617;28;20025;-73
2022/04/17 02:30:30;;;;;;;1.65;0.60;;;8.80;63.10;;;;;;5007534;28;20034;-74
2022/04/17 02:32:56;;;;;;;1.70;0.68;;;9.10;62.40;;;;;;5006061;28;20388;-74
2022/04/17 02:35:21;;;;;;;1.42;0.50;;;9.10;62.40;;;;;;5009078;28;20045;-73
2022/04/17 02:37:47;;;;;;;0.88;0.50;;;8.90;62.90;;;;;;4994205;28;20117;-74
2022/04/17 02:40:12;;;;;;;1.45;0.73;;;8.70;63.10;;;;;;5008975;28;20059;-74
2022/04/17 02:42:38;;;;;;;1.20;0.70;;;8.90;62.50;;;;;;5013719;28;20037;-74
2022/04/17 02:45:04;;;;;;;1.63;0.70;;;9.00;62.10;;;;;;5000602;28;20378;-73
2022/04/17 02:47:51;;;;;;;1.75;0.60;;;8.80;62.20;;;;;;5009894;28;20038;-73
2022/04/17 02:50:18;;;;;;;0.38;0.30;;;9.30;60.90;;;;;;5011528;28;20034;-74
2022/04/17 02:52:45;;;;;;;1.77;0.70;;;9.40;60.30;;;;;;5012441;28;20026;-74
2022/04/17 02:55:11;;;;;;;1.17;0.60;;;9.10;61.40;;;;;;5011542;28;20472;-74
2022/04/17 02:57:36;;;;;;;1.73;0.57;;;8.90;61.60;;;;;;5013358;28;20034;-74
2022/04/17 03:00:04;;;;;;;2.00;1.10;;;8.60;62.50;;;;;;4998644;28;20446;-74
2022/04/17 03:07:59;;;;;;;0.65;0.50;;;9.30;60.80;;;;;;4987220;28;20065;-73
2022/04/17 03:10:25;;;;;;;1.52;0.57;;;8.70;62.30;;;;;;5003717;28;20484;-72
2022/04/17 03:12:50;;;;;;;1.20;0.40;;;8.80;62.20;;;;;;5006722;28;20061;-72
2022/04/17 03:15:16;;;;;;;1.92;0.60;;;8.80;61.50;;;;;;4992115;28;20456;-73
2022/04/17 03:17:42;;;;;;;2.00;0.82;;;8.90;61.20;;;;;;4985059;28;20046;-73
2022/04/17 03:20:08;;;;;;;3.03;0.90;;;9.10;61.90;;;;;;4988270;28;20189;-72
2022/04/17 03:22:34;;;;;;;2.05;0.70;;;9.00;61.00;;;;;;4985006;28;20404;-72
2022/04/17 03:25:01;;;;;;;0.98;0.73;;;8.60;62.10;;;;;;5002586;28;20030;-73
2022/04/17 03:27:28;;;;;;;1.42;0.70;;;8.50;62.40;;;;;;4989692;28;20038;-72
2022/04/17 03:29:55;;;;;;;1.15;0.60;;;8.20;63.00;;;;;;4987444;28;20030;-73
2022/04/17 03:32:20;;;;;;;1.10;0.45;;;8.10;63.90;;;;;;4986784;28;20477;-72
2022/04/17 03:34:46;;;;;;;1.67;0.52;;;8.50;62.00;;;;;;5011749;28;20102;-72
2022/04/17 03:37:14;;;;;;;0.82;0.47;;;8.50;62.40;;;;;;5025991;28;20483;-72
2022/04/17 03:39:40;;;;;;;0.43;0.30;;;8.30;62.70;;;;;;5007423;28;20116;-72
2022/04/17 03:42:05;;;;;;;0.77;0.43;;;8.40;61.70;;;;;;4994357;28;20072;-72
2022/04/17 03:44:31;;;;;;;2.47;0.90;;;8.70;61.60;;;;;;4987303;28;20054;-72
2022/04/17 03:46:57;;;;;;;0.55;0.30;;;8.10;62.50;;;;;;4989680;28;20366;-73
2022/04/17 03:49:22;;;;;;;0.90;0.30;;;8.30;62.70;;;;;;5006429;28;20042;-72
2022/04/17 03:51:48;;;;;;;1.38;0.63;;;8.20;62.50;;;;;;4989595;28;20392;-72
2022/04/17 03:54:13;;;;;;;1.90;0.70;;;8.00;62.50;;;;;;4987647;28;20121;-72
2022/04/17 03:56:39;;;;;;;3.58;0.80;;;8.20;62.10;;;;;;5001958;28;20026;-72
2022/04/17 03:59:04;;;;;;;1.00;0.60;;;8.00;62.60;;;;;;5004298;28;20116;-72
2022/04/17 04:01:30;;;;;;;0.98;0.52;;;8.30;62.00;;;;;;4989340;28;20444;-72
2022/04/17 04:03:56;;;;;;;1.55;0.65;;;8.60;61.10;;;;;;5004164;28;20041;-72
2022/04/17 04:06:22;;;;;;;1.30;0.60;;;8.40;61.00;;;;;;4995893;28;20188;-72
2022/04/17 04:08:49;;;;;;;1.58;0.80;;;7.90;62.70;;;;;;4988150;28;20109;-72
2022/04/17 04:11:15;;;;;;;1.35;0.70;;;7.90;62.50;;;;;;4998328;28;20403;-72
2022/04/17 04:13:42;;;;;;;2.05;0.60;;;7.70;63.70;;;;;;5007220;28;20515;-72
2022/04/17 04:16:08;;;;;;;1.15;0.50;;;7.60;63.60;;;;;;5006045;28;20603;-72
2022/04/17 04:18:34;;;;;;;0.77;0.45;;;7.70;63.40;;;;;;5007617;28;20037;-72
2022/04/17 04:21:00;;;;;;;1.70;0.52;;;7.50;63.90;;;;;;4988027;28;20026;-72
2022/04/17 04:23:26;;;;;;;1.90;0.77;;;7.60;64.10;;;;;;4987850;28;20480;-72
2022/04/17 04:25:51;;;;;;;1.50;0.70;;;7.70;64.00;;;;;;4994253;28;20053;-72
2022/04/17 04:31:05;;;;;;;1.55;0.57;;;7.50;63.40;;;;;;4996083;28;20174;-72
2022/04/17 04:33:35;;;;;;;3.88;0.80;;;7.70;63.10;;;;;;5007437;28;20135;-72
2022/04/17 04:36:02;;;;;;;1.92;0.82;;;8.00;62.50;;;;;;4998761;28;20049;-72
2022/04/17 04:38:28;;;;;;;1.60;0.60;;;7.90;62.50;;;;;;5000354;28;20091;-72
2022/04/17 04:40:54;;;;;;;1.02;0.47;;;7.90;62.90;;;;;;5000303;28;20030;-73
2022/04/17 04:43:20;;;;;;;2.33;0.45;;;7.80;62.90;;;;;;4987526;28;20477;-72
2022/04/17 04:51:16;;;;;;;1.83;0.73;;;8.20;62.20;;;;;;4987282;28;20049;-73
2022/04/17 04:53:42;;;;;;;1.00;0.55;;;8.10;62.60;;;;;;4987225;28;20408;-73
2022/04/17 04:56:08;;;;;;;1.27;0.57;;;8.00;63.40;;;;;;5002540;28;20034;-72
2022/04/17 04:58:34;;;;;;;1.27;0.52;;;7.80;63.50;;;;;;5006702;28;20126;-72
2022/04/17 05:01:00;;;;;;;1.25;0.60;;;7.90;63.40;;;;;;4993733;28;20369;-72
2022/04/17 05:03:26;;;;;;;2.05;0.82;;;7.70;62.70;;;;;;4989424;28;20044;-73
2022/04/17 05:05:52;;;;;;;1.63;0.70;;;7.60;63.20;;;;;;5009167;28;20113;-74
2022/04/17 05:08:21;;;;;;;1.58;0.65;;;7.70;63.30;;;;;;5007848;28;20057;-72
2022/04/17 05:10:48;;;;;;;3.50;0.95;;;7.90;63.30;;;;;;5004861;28;20049;-72
2022/04/17 05:13:14;;;;;;;2.70;0.60;;;8.00;62.90;;;;;;5007056;28;20029;-73
2022/04/17 05:15:40;;;;;;;1.50;0.70;;;7.90;63.10;;;;;;4996461;28;20503;-72
2022/04/17 05:18:06;;;;;;;2.10;0.73;;;7.60;63.60;;;;;;4986907;28;20035;-72
2022/04/17 05:20:33;;;;;;;1.05;0.50;;;7.60;63.30;;;;;;4993967;28;20373;-73
2022/04/17 05:23:19;;;;;;;1.70;0.63;;;7.60;63.50;;;;;;5006264;28;20500;-72
2022/04/17 05:25:50;;;;;;;1.20;0.70;;;7.60;63.50;;;;;;4996831;28;20464;-72
2022/04/17 05:28:16;;;;;;;3.92;0.70;;;7.50;63.60;;;;;;4987593;28;20084;-73
2022/04/17 05:30:42;;;;;;;2.85;0.60;;;7.50;64.00;;;;;;4995772;28;20033;-73
2022/04/17 05:33:08;;;;;;;1.55;0.50;;;7.60;63.90;;;;;;5005541;28;20531;-72
2022/04/17 05:35:34;;;;;;;2.83;1.20;;;7.90;63.70;;;;;;5004783;28;20397;-73
2022/04/17 05:38:00;;;;;;;1.25;0.50;;;8.50;62.00;;;;;;4993583;28;20038;-72
2022/04/17 05:40:26;;;;;;;1.85;0.80;;;8.60;62.50;;;;;;4992079;28;20041;-73
2022/04/17 05:42:52;;;;;;;1.88;0.80;;;8.60;62.60;;;;;;4995389;28;20034;-72
2022/04/17 05:45:18;;;;;;;1.15;0.60;;;8.60;62.80;;;;;;4987321;28;20035;-72
2022/04/17 05:47:44;;;;;;;2.00;0.77;;;8.30;63.10;;;;;;4986356;28;20030;-72
2022/04/17 05:50:10;;;;;;;1.27;0.60;;;8.50;62.50;;;;;;4990165;28;20539;-72
2022/04/17 05:52:36;;;;;;;1.58;0.65;;;8.60;62.60;;;;;;5005964;28;20035;-73
2022/04/17 05:55:02;;;;;;;3.10;0.65;;;8.70;62.50;;;;;;4993727;28;20196;-72
2022/04/17 05:57:28;;;;;;;1.02;0.60;;;8.50;65.50;;;;;;4986930;28;20554;-72
2022/04/17 05:59:54;;;;;;;1.65;0.70;;;8.50;63.90;;;;;;4995453;28;20467;-72
2022/04/17 06:02:19;;;;;;;1.48;0.60;;;8.40;63.70;;;;;;5001610;28;20382;-72
2022/04/17 06:04:47;;;;;;;1.60;0.65;;;8.40;63.20;;;;;;4986116;28;20145;-72
2022/04/17 06:07:13;;;;;;;2.45;0.70;;;8.30;64.20;;;;;;4986916;28;20046;-73
2022/04/17 06:09:39;;;;;;;1.27;0.55;;;8.60;62.00;;;;;;4986207;28;20088;-72
2022/04/17 06:12:05;;;;;;;1.75;0.73;;;8.50;63.70;;;;;;5005298;28;20033;-73
2022/04/17 06:14:30;;;;;;;2.72;0.70;;;8.60;63.90;;;;;;5005779;28;20056;-73
2022/04/17 06:16:56;;;;;;;1.70;0.80;;;8.50;64.50;;;;;;5003512;28;20464;-72
2022/04/17 06:19:22;;;;;;;5.40;0.90;;;8.60;65.30;;;;;;5005083;28;20335;-72
2022/04/17 06:21:47;;;;;;;1.77;0.80;;;8.80;65.80;;;;;;5002333;28;20041;-72
2022/04/17 06:24:13;;;;;;;1.42;0.75;;;8.80;65.60;;;;;;4985281;28;20501;-72
2022/04/17 06:26:39;;;;;;;4.07;1.92;;;8.90;65.60;;;;;;4984991;28;20562;-72
2022/04/17 06:29:08;;;;;;;5.80;2.25;;;8.90;65.80;;;;;;5004670;28;20038;-73
2022/04/17 06:31:34;;;;;;;2.80;1.05;;;9.00;66.50;;;;;;4990576;28;20245;-72
2022/04/17 06:34:01;;;;;;;1.92;1.08;;;9.20;66.10;;;;;;4985862;28;20182;-72
2022/04/17 06:36:26;;;;;;;5.07;1.33;;;9.50;66.40;;;;;;5000977;28;20480;-73
2022/04/17 06:38:52;;;;;;;4.22;1.55;;;9.70;66.20;;;;;;5003026;28;20034;-72
2022/04/17 06:41:18;;;;;;;2.88;1.17;;;9.80;63.30;;;;;;5003555;28;20033;-73
2022/04/17 06:43:43;;;;;;;2.22;0.90;;;10.40;63.50;;;;;;5003744;28;20041;-72
2022/04/17 06:46:09;;;;;;;1.92;0.73;;;11.10;64.10;;;;;;4995731;28;20038;-73
2022/04/17 06:48:34;;;;;;;2.80;1.45;;;12.10;62.40;;;;;;4984949;28;20137;-73
2022/04/17 06:51:00;;;;;;;4.38;2.17;;;13.20;60.00;;;;;;4985815;28;20704;-73
2022/04/17 06:53:26;;;;;;;4.85;3.15;;;14.80;58.50;;;;;;4985565;28;20033;-73
2022/04/17 06:55:52;;;;;;;3.88;2.40;;;16.10;57.20;;;;;;4990110;28;20507;-73
2022/04/17 06:58:19;;;;;;;3.03;1.50;;;17.40;56.30;;;;;;4987892;28;20124;-73
2022/04/17 07:00:46;;;;;;;4.38;1.50;;;18.80;54.70;;;;;;4985385;28;20073;-73
2022/04/17 07:03:14;;;;;;;2.92;1.10;;;19.40;53.00;;;;;;4986045;28;20042;-72
2022/04/17 07:05:40;;;;;;;2.05;0.82;;;20.40;52.00;;;;;;4990956;28;20104;-73
2022/04/17 07:08:06;;;;;;;3.13;1.38;;;20.50;53.20;;;;;;5003844;28;20113;-73
2022/04/17 07:10:37;;;;;;;2.50;1.23;;;20.60;51.80;;;;;;5003043;28;20225;-73
2022/04/17 07:13:03;;;;;;;4.15;1.27;;;20.90;52.10;;;;;;5001963;28;20088;-73
2022/04/17 07:15:29;;;;;;;3.83;1.00;;;20.90;50.70;;;;;;5002453;28;20476;-72
2022/04/17 07:17:55;;;;;;;2.92;1.13;;;20.60;51.30;;;;;;5003605;28;20041;-73
2022/04/17 07:20:22;;;;;;;12.10;3.10;;;20.50;50.90;;;;;;4986232;28;20659;-73
2022/04/17 07:22:48;;;;;;;2.95;0.88;;;20.70;50.80;;;;;;4984314;28;20030;-73
2022/04/17 07:25:14;;;;;;;2.75;1.30;;;20.30;49.70;;;;;;4992083;28;20091;-73
2022/04/17 07:27:42;;;;;;;9.10;1.30;;;20.40;49.50;;;;;;4985170;28;20047;-73
2022/04/17 07:30:16;;;;;;;14.18;1.95;;;19.90;51.80;;;;;;4985215;28;20421;-74
2022/04/17 07:32:44;;;;;;;2.25;0.85;;;19.70;53.20;;;;;;4984796;28;20492;-73
2022/04/17 07:35:11;;;;;;;3.28;1.20;;;16.40;56.00;;;;;;4985392;28;20088;-73
2022/04/17 07:37:37;;;;;;;2.63;1.00;;;13.90;58.10;;;;;;4983383;28;20489;-73
2022/04/17 07:40:14;;;;;;;30.83;2.92;;;12.80;60.20;;;;;;4997661;28;20380;-73
2022/04/17 07:42:41;;;;;;;6.78;1.45;;;12.30;60.80;;;;;;5001674;28;20357;-73
2022/04/17 07:45:07;;;;;;;4.15;1.52;;;12.10;61.90;;;;;;5001983;28;20026;-72
2022/04/17 07:47:32;;;;;;;2.50;1.10;;;12.00;62.20;;;;;;5002069;28;20228;-72
2022/04/17 07:49:59;;;;;;;2.60;1.20;;;12.20;62.00;;;;;;5002651;28;20084;-72
2022/04/17 07:52:25;;;;;;;3.90;0.93;;;12.00;59.70;;;;;;4984580;28;20408;-74
2022/04/17 07:54:50;;;;;;;1.48;0.70;;;12.10;60.60;;;;;;4983817;28;20238;-73
2022/04/17 07:57:16;;;;;;;2.60;1.00;;;12.10;60.60;;;;;;4982730;28;20519;-73
2022/04/17 07:59:41;;;;;;;1.90;0.90;;;12.00;61.00;;;;;;4984277;28;20087;-73
2022/04/17 08:02:22;;;;;;;2.17;0.98;;;12.00;61.10;;;;;;5002223;28;20028;-73
2022/04/17 08:04:51;;;;;;;5.85;1.40;;;12.10;61.90;;;;;;5002993;28;20075;-72
2022/04/17 08:07:23;;;;;;;4.45;1.23;;;12.20;61.60;;;;;;4996335;28;20038;-73
2022/04/17 08:09:49;;;;;;;3.53;1.20;;;12.20;61.70;;;;;;4989428;28;20087;-73
2022/04/17 08:12:14;;;;;;;2.88;1.30;;;12.00;61.60;;;;;;5002307;28;20116;-73
2022/04/17 08:14:40;;;;;;;3.28;0.93;;;11.90;60.80;;;;;;5003104;28;20105;-73
2022/04/17 08:17:06;;;;;;;5.45;1.50;;;11.90;60.70;;;;;;5002551;28;20088;-72
2022/04/17 08:19:32;;;;;;;3.20;1.00;;;11.80;61.00;;;;;;5003491;28;20030;-71
2022/04/17 08:22:02;;;;;;;4.95;1.27;;;11.80;61.10;;;;;;4991947;28;20035;-72
2022/04/17 08:24:30;;;;;;;2.55;1.00;;;11.90;61.60;;;;;;4999991;28;20060;-73
2022/04/17 08:26:57;;;;;;;6.45;0.98;;;12.00;60.90;;;;;;5000376;28;20100;-73
2022/04/17 08:29:23;;;;;;;2.45;0.85;;;12.00;60.40;;;;;;5005862;28;20038;-72
2022/04/17 08:31:49;;;;;;;1.77;0.80;;;12.10;60.90;;;;;;5005813;28;20030;-72
2022/04/17 08:34:14;;;;;;;4.40;0.77;;;12.20;59.60;;;;;;5005898;28;20058;-73
2022/04/17 08:36:40;;;;;;;3.30;0.82;;;12.20;59.30;;;;;;5005962;28;20045;-73
2022/04/17 08:39:06;;;;;;;4.93;1.33;;;12.40;60.60;;;;;;5006062;28;20037;-74
2022/04/17 08:41:33;;;;;;;6.95;0.85;;;14.20;58.40;;;;;;5005931;28;20034;-73
2022/04/17 08:43:58;;;;;;;9.20;1.30;;;16.20;55.60;;;;;;5002336;28;20038;-73
2022/04/17 08:46:24;;;;;;;14.68;2.10;;;17.30;55.70;;;;;;4988236;28;20030;-73
2022/04/17 08:48:51;;;;;;;5.25;0.95;;;18.30;56.10;;;;;;4983313;28;20026;-73
2022/04/17 08:51:22;;;;;;;2.65;0.93;;;18.80;54.80;;;;;;4996746;28;20023;-73
2022/04/17 08:53:50;;;;;;;2.00;0.95;;;19.60;54.70;;;;;;4986807;28;20066;-73
2022/04/17 08:56:15;;;;;;;2.80;1.08;;;19.10;53.80;;;;;;4993942;28;20046;-73
2022/04/17 08:58:42;;;;;;;1.58;0.73;;;19.40;53.30;;;;;;4990790;28;20018;-73
2022/04/17 09:01:13;;;;;;;2.65;0.80;;;18.80;53.10;;;;;;4988185;28;20550;-73
2022/04/17 09:03:38;;;;;;;11.00;1.52;;;19.20;53.60;;;;;;5005807;28;20037;-73
2022/04/17 09:06:04;;;;;;;1.42;0.73;;;19.60;53.40;;;;;;5005616;28;20192;-73
2022/04/17 09:08:30;;;;;;;4.90;1.25;;;18.80;53.90;;;;;;5005583;28;20036;-73
2022/04/17 09:10:58;;;;;;;4.20;1.10;;;19.40;55.00;;;;;;5005101;28;20045;-73
2022/04/17 09:13:42;;;;;;;28.25;2.70;;;18.90;53.70;;;;;;5005959;28;20034;-73
2022/04/17 09:16:09;;;;;;;3.92;1.38;;;17.90;56.20;;;;;;4985496;28;20030;-73
2022/04/17 09:18:38;;;;;;;3.47;1.23;;;17.00;57.00;;;;;;4994274;28;20034;-73
2022/04/17 09:21:04;;;;;;;95.05;9.07;;;16.20;60.60;;;;;;5005196;28;20030;-73
2022/04/17 09:23:38;;;;;;;9.77;1.35;;;15.30;59.40;;;;;;4994496;28;20037;-73
2022/04/17 09:26:05;;;;;;;3.97;1.38;;;15.30;59.50;;;;;;5005211;28;20107;-73
2022/04/17 09:28:32;;;;;;;4.47;2.35;;;15.00;60.20;;;;;;5003943;28;20057;-73
2022/04/17 09:30:59;;;;;;;3.33;1.60;;;14.80;59.50;;;;;;5005431;28;20499;-73
2022/04/17 09:33:38;;;;;;;5.20;2.08;;;14.80;60.10;;;;;;5005234;28;20080;-73
2022/04/17 09:36:05;;;;;;;10.73;1.30;;;14.70;59.90;;;;;;4994111;28;20046;-74
2022/04/17 09:38:33;;;;;;;87.78;8.10;;;15.10;61.60;;;;;;4994573;28;20025;-73
2022/04/17 09:41:13;;;;;;;52.67;6.18;;;14.70;59.90;;;;;;5005676;28;20072;-73
2022/04/17 09:43:39;;;;;;;134.80;11.68;;;14.70;62.10;;;;;;5006271;28;20527;-74
2022/04/17 09:46:06;;;;;;;9.02;1.80;;;15.20;63.70;;;;;;5005699;28;20091;-73
2022/04/17 09:48:40;;;;;;;36.95;3.42;;;15.00;62.50;;;;;;5005427;28;20033;-73
2022/04/17 09:51:22;;;;;;;17.60;1.92;;;15.30;63.90;;;;;;4996343;28;20030;-73
2022/04/17 09:54:03;;;;;;;5.30;1.38;;;15.60;63.50;;;;;;4998283;28;20506;-73
2022/04/17 09:56:35;;;;;;;7.45;1.70;;;15.50;64.70;;;;;;5006608;28;20038;-73
2022/04/17 09:59:21;;;;;;;5.15;2.05;;;15.60;61.70;;;;;;5008863;28;20451;-73
2022/04/17 10:01:52;;;;;;;4.13;2.03;;;15.50;62.50;;;;;;5005283;28;20042;-73
2022/04/17 10:04:20;;;;;;;2.38;0.90;;;15.70;62.00;;;;;;4996793;28;20061;-72
2022/04/17 10:06:51;;;;;;;3.13;1.50;;;16.10;62.60;;;;;;4994897;28;20044;-73
2022/04/17 10:09:18;;;;;;;5.75;0.90;;;16.00;62.80;;;;;;5000325;28;20026;-73
2022/04/17 10:11:44;;;;;;;3.63;1.40;;;15.80;62.20;;;;;;5005944;28;20034;-73
2022/04/17 10:14:09;;;;;;;4.03;1.35;;;15.70;62.20;;;;;;5007676;28;20040;-73
2022/04/17 10:16:40;;;;;;;3.95;1.30;;;15.60;61.40;;;;;;5005822;28;20261;-73
2022/04/17 10:19:11;;;;;;;2.70;1.30;;;15.70;62.30;;;;;;4986909;28;20072;-73
2022/04/17 10:21:39;;;;;;;3.03;1.20;;;15.90;64.50;;;;;;4988126;28;20022;-73
2022/04/17 10:24:07;;;;;;;4.75;1.83;;;16.40;63.10;;;;;;4992128;28;20275;-73
2022/04/17 10:26:57;;;;;;;3.00;1.20;;;16.70;62.60;;;;;;5001150;28;20061;-73
2022/04/17 10:29:43;;;;;;;5.93;1.10;;;16.70;61.90;;;;;;5007848;28;20057;-73
2022/04/17 10:32:35;;;;;;;3.80;1.50;;;16.30;61.50;;;;;;5008493;28;20065;-73
2022/04/17 10:35:14;;;;;;;9.23;2.90;;;16.90;63.20;;;;;;5008276;28;20029;-72
2022/04/17 10:38:17;;;;;;;4.95;1.48;;;17.20;63.80;;;;;;5005956;28;20048;-73
2022/04/17 10:40:54;;;;;;;3.58;1.23;;;17.30;62.60;;;;;;4992136;28;20031;-74
2022/04/17 10:43:20;;;;;;;5.22;2.00;;;17.40;64.60;;;;;;5008265;28;20033;-73
2022/04/17 10:46:09;;;;;;;8.73;4.38;;;17.50;64.60;;;;;;5008176;28;20025;-73
2022/04/17 10:48:48;;;;;;;4.28;1.70;;;17.40;61.90;;;;;;4998224;28;20100;-73
2022/04/17 10:51:25;;;;;;;2.38;0.88;;;17.40;60.40;;;;;;4997363;28;20407;-74
2022/04/17 10:53:52;;;;;;;3.75;1.23;;;17.30;62.40;;;;;;5006222;28;20040;-73
2022/04/17 10:56:19;;;;;;;3.67;1.45;;;17.60;60.70;;;;;;4990971;28;20424;-74
2022/04/17 10:59:14;;;;;;;6.78;1.60;;;17.40;62.50;;;;;;5001861;28;20053;-73
2022/04/17 11:01:45;;;;;;;3.60;1.20;;;17.20;59.80;;;;;;5006672;28;20060;-74
2022/04/17 11:04:18;;;;;;;5.95;3.40;;;17.20;60.60;;;;;;5007608;28;20029;-74
2022/04/17 11:06:44;;;;;;;3.15;1.30;;;17.00;59.40;;;;;;5006678;28;20129;-74
2022/04/17 11:09:15;;;;;;;2.75;1.20;;;17.30;60.00;;;;;;5000207;28;20882;-71
2022/04/17 11:11:45;;;;;;;5.38;1.73;;;17.50;60.60;;;;;;4988513;28;20304;-73
2022/04/17 11:14:13;;;;;;;11.18;5.00;;;17.60;62.60;;;;;;5002437;28;20300;-72
2022/04/17 11:16:48;;;;;;;7.70;2.92;;;17.70;61.40;;;;;;5001426;28;20576;-75
2022/04/17 11:19:25;;;;;;;10.98;3.85;;;17.80;62.40;;;;;;5003255;28;20038;-73
2022/04/17 11:21:53;;;;;;;10.07;3.47;;;17.60;60.00;;;;;;5007685;28;20078;-74
2022/04/17 11:24:21;;;;;;;6.75;2.70;;;17.80;60.70;;;;;;5007709;28;20151;-74
2022/04/17 11:26:52;;;;;;;6.05;2.63;;;17.60;62.10;;;;;;5007854;28;20057;-73
2022/04/17 11:29:43;;;;;;;9.00;4.22;;;17.60;60.80;;;;;;5007698;28;20030;-73
2022/04/17 11:32:17;;;;;;;4.18;1.88;;;17.80;59.50;;;;;;5007626;28;20030;-73
2022/04/17 11:34:52;;;;;;;4.72;1.77;;;17.90;61.20;;;;;;5007799;28;20029;-73
2022/04/17 11:37:31;;;;;;;10.88;4.60;;;18.00;60.00;;;;;;5007726;28;20096;-73
2022/04/17 11:40:08;;;;;;;20.42;9.82;;;18.10;60.50;;;;;;5007445;28;20038;-73
2022/04/17 11:42:47;;;;;;;25.92;13.82;;;18.10;59.30;;;;;;5007538;28;20633;-74
2022/04/17 11:45:15;;;;;;;6.88;2.85;;;18.10;61.80;;;;;;5007653;28;20022;-73
2022/04/17 11:47:46;;;;;;;5.63;1.92;;;18.50;61.70;;;;;;5007552;28;20029;-73
2022/04/17 11:50:20;;;;;;;5.45;3.80;;;18.70;60.80;;;;;;5007502;28;20038;-73
2022/04/17 11:52:52;;;;;;;6.63;5.28;;;18.70;59.60;;;;;;5006641;28;20486;-73
2022/04/17 11:55:23;;;;;;;4.55;1.98;;;18.60;59.10;;;;;;5006791;28;20026;-73
2022/04/17 11:57:49;;;;;;;5.78;1.85;;;18.70;60.70;;;;;;5007070;28;20045;-73
2022/04/17 12:00:15;;;;;;;11.65;3.70;;;18.60;60.80;;;;;;5006752;28;20037;-74
2022/04/17 12:02:40;;;;;;;3.35;1.27;;;18.80;60.70;;;;;;5007329;28;20041;-73
2022/04/17 12:05:09;;;;;;;3.85;1.42;;;18.90;62.20;;;;;;5007123;28;20041;-73
2022/04/17 12:07:35;;;;;;;4.68;1.30;;;18.90;60.30;;;;;;5007293;28;20026;-74
2022/04/17 12:10:08;;;;;;;5.28;1.92;;;18.80;59.70;;;;;;5006894;28;20052;-74
2022/04/17 12:12:39;;;;;;;5.45;1.77;;;18.70;58.90;;;;;;5007346;28;20030;-74
2022/04/17 12:15:06;;;;;;;3.08;1.58;;;18.70;60.40;;;;;;5007520;28;20049;-74
2022/04/17 12:17:33;;;;;;;9.48;1.40;;;18.80;60.90;;;;;;5007131;28;20427;-74
2022/04/17 12:19:59;;;;;;;6.93;2.35;;;18.90;60.60;;;;;;5006541;28;20026;-74
2022/04/17 12:22:26;;;;;;;6.47;1.83;;;18.90;58.60;;;;;;5006932;28;20054;-74
2022/04/17 12:24:52;;;;;;;3.78;1.50;;;18.80;60.30;;;;;;5008555;28;20026;-74
2022/04/17 12:27:19;;;;;;;6.43;1.42;;;18.90;58.90;;;;;;5011202;28;20021;-74
2022/04/17 12:29:52;;;;;;;3.17;1.17;;;19.00;59.90;;;;;;5011049;28;20052;-74
2022/04/17 12:32:21;;;;;;;10.17;1.70;;;19.20;60.50;;;;;;5011135;28;20112;-74
2022/04/17 12:34:57;;;;;;;5.07;1.30;;;19.10;59.20;;;;;;5010756;28;20056;-73
2022/04/17 12:37:30;;;;;;;3.40;1.35;;;19.00;61.50;;;;;;5010733;28;20034;-73
2022/04/17 12:40:18;;;;;;;6.85;1.35;;;19.40;61.80;;;;;;5010665;28;20032;-73
2022/04/17 12:42:44;;;;;;;4.38;1.52;;;19.50;60.70;;;;;;5010685;28;20092;-73
2022/04/17 12:45:21;;;;;;;3.70;1.17;;;19.40;60.70;;;;;;5010310;28;20065;-73
2022/04/17 12:48:06;;;;;;;5.63;1.30;;;19.50;60.60;;;;;;5010214;28;20022;-74
2022/04/17 12:50:33;;;;;;;3.05;1.45;;;19.60;58.50;;;;;;5010145;28;20041;-74
2022/04/17 12:53:00;;;;;;;5.47;1.67;;;19.60;60.60;;;;;;5010330;28;20404;-74
2022/04/17 12:55:34;;;;;;;3.28;1.40;;;19.70;60.70;;;;;;5010227;28;20096;-74
2022/04/17 12:58:01;;;;;;;5.75;1.30;;;19.60;60.40;;;;;;5010519;28;20065;-73
2022/04/17 13:00:31;;;;;;;2.22;1.08;;;19.30;60.50;;;;;;5010618;28;20060;-73
2022/04/17 13:03:16;;;;;;;10.20;1.67;;;19.60;60.00;;;;;;5010488;28;20096;-73
2022/04/17 13:05:42;;;;;;;7.95;1.10;;;19.70;61.40;;;;;;5010454;28;20058;-74
2022/04/17 13:08:09;;;;;;;5.75;1.30;;;19.70;60.00;;;;;;5010539;28;20060;-74
2022/04/17 13:10:36;;;;;;;6.22;1.45;;;19.70;59.60;;;;;;5009969;28;20629;-73
2022/04/17 13:13:02;;;;;;;6.82;2.03;;;19.40;59.50;;;;;;5010284;28;20124;-74